Time,TemperatureF,DewpointF,PressureIn,WindDirection,WindDirectionDegrees,WindSpeedMPH,WindSpeedGustMPH,Humidity,HourlyPrecipIn,Conditions,Clouds,dailyrainin,SoftwareType,DateUTC
2013-01-15 00:04:00,21.7,9.6,29.44,NNW,348,0.0,0.0,59,0.00,,---,0.00,VWS V14.00,2013-01-15 06:04:00,
2013-01-15 00:07:00,21.7,9.6,29.44,NNW,348,0.0,0.0,59,0.00,,---,0.00,VWS V14.00,2013-01-15 06:07:00,
2013-01-15 00:13:00,21.7,9.6,29.44,NNW,338,0.0,0.0,59,0.00,,---,0.00,VWS V14.00,2013-01-15 06:13:00,
2013-01-15 00:19:00,21.5,9.4,29.44,NNW,338,0.0,0.0,59,0.00,,---,0.00,VWS V14.00,2013-01-15 06:19:00,
2013-01-15 00:22:00,21.5,9.4,29.44,NNW,345,3.1,3.1,59,0.00,,---,0.00,VWS V14.00,2013-01-15 06:22:00,
2013-01-15 00:25:00,21.2,9.1,29.44,North,357,2.2,3.1,59,0.00,,---,0.00,VWS V14.00,2013-01-15 06:25:00,
2013-01-15 00:31:00,21.2,9.1,29.44,North,0,0.0,3.1,59,0.00,,---,0.00,VWS V14.00,2013-01-15 06:31:00,
2013-01-15 00:34:00,21.2,9.1,29.44,NNW,342,0.0,3.1,59,0.00,,---,0.00,VWS V14.00,2013-01-15 06:34:00,
2013-01-15 00:37:00,21.2,9.1,29.44,North,0,2.7,2.7,59,0.00,,---,0.00,VWS V14.00,2013-01-15 06:37:00,
2013-01-15 00:40:00,21.2,9.1,29.44,North,350,0.0,2.7,59,0.00,,---,0.00,VWS V14.00,2013-01-15 06:40:00,
2013-01-15 00:46:00,21.0,8.9,29.44,North,353,2.2,2.7,59,0.00,,---,0.00,VWS V14.00,2013-01-15 06:46:00,
2013-01-15 00:49:00,20.8,8.8,29.44,North,353,2.2,2.7,59,0.00,,---,0.00,VWS V14.00,2013-01-15 06:49:00,
2013-01-15 00:55:00,20.8,8.8,29.44,North,353,0.0,2.2,59,0.00,,---,0.00,VWS V14.00,2013-01-15 06:55:00,
2013-01-15 00:58:00,20.8,8.8,29.44,North,353,0.0,2.2,59,0.00,,---,0.00,VWS V14.00,2013-01-15 06:58:00,
2013-01-15 01:01:00,21.0,9.7,29.44,North,353,0.0,2.2,61,0.00,,---,0.00,VWS V14.00,2013-01-15 07:01:00,
2013-01-15 01:07:00,21.4,10.0,29.44,North,350,0.0,0.0,61,0.00,,---,0.00,VWS V14.00,2013-01-15 07:07:00,
2013-01-15 01:10:00,21.4,10.0,29.44,North,0,2.7,2.7,61,0.00,,---,0.00,VWS V14.00,2013-01-15 07:10:00,
2013-01-15 01:13:00,21.4,10.0,29.44,North,0,0.0,2.7,61,0.00,,---,0.00,VWS V14.00,2013-01-15 07:13:00,
2013-01-15 01:16:00,21.5,10.2,29.44,North,357,0.0,2.7,61,0.00,,---,0.00,VWS V14.00,2013-01-15 07:16:00,
2013-01-15 01:19:00,21.5,10.2,29.44,NNW,346,2.7,2.7,61,0.00,,---,0.00,VWS V14.00,2013-01-15 07:19:00,
2013-01-15 01:22:00,21.5,10.2,29.44,North,353,0.0,0.0,61,0.00,,---,0.00,VWS V14.00,2013-01-15 07:22:00,
2013-01-15 01:34:00,20.6,9.3,29.44,NNW,339,0.0,0.0,61,0.00,,---,0.00,VWS V14.00,2013-01-15 07:34:00,
2013-01-15 01:35:00,20.6,9.3,29.44,NNW,339,0.0,0.0,61,0.00,,---,0.00,VWS V14.00,2013-01-15 07:35:00,
2013-01-15 01:41:00,20.8,9.9,29.44,North,353,0.0,0.0,62,0.00,,---,0.00,VWS V14.00,2013-01-15 07:41:00,
2013-01-15 01:47:00,20.6,9.7,29.44,NNW,345,0.0,0.0,62,0.00,,---,0.00,VWS V14.00,2013-01-15 07:47:00,
2013-01-15 01:49:00,20.6,9.7,29.44,NNW,345,0.0,0.0,62,0.00,,---,0.00,VWS V14.00,2013-01-15 07:49:00,
2013-01-15 01:50:00,20.6,9.7,29.44,NNW,345,0.0,0.0,62,0.00,,---,0.00,VWS V14.00,2013-01-15 07:50:00,
2013-01-15 01:56:00,20.5,9.2,29.44,NNW,345,0.0,0.0,61,0.00,,---,0.00,VWS V14.00,2013-01-15 07:56:00,
2013-01-15 02:02:00,20.5,9.2,29.44,NNW,345,0.0,0.0,61,0.00,,---,0.00,VWS V14.00,2013-01-15 08:02:00,
2013-01-15 02:04:00,20.5,9.2,29.44,NNW,345,0.0,0.0,61,0.00,,---,0.00,VWS V14.00,2013-01-15 08:04:00,
2013-01-15 02:11:00,20.5,9.2,29.44,NNW,345,0.0,0.0,61,0.00,,---,0.00,VWS V14.00,2013-01-15 08:11:00,
2013-01-15 02:14:00,20.6,9.3,29.44,NNW,345,0.0,0.0,61,0.00,,---,0.00,VWS V14.00,2013-01-15 08:14:00,
2013-01-15 02:20:00,20.8,9.5,29.44,North,353,0.0,0.0,61,0.00,,---,0.00,VWS V14.00,2013-01-15 08:20:00,
2013-01-15 02:26:00,20.8,9.5,29.44,North,349,0.0,0.0,61,0.00,,---,0.00,VWS V14.00,2013-01-15 08:26:00,
2013-01-15 02:29:00,21.0,10.0,29.44,North,349,0.0,0.0,62,0.00,,---,0.00,VWS V14.00,2013-01-15 08:29:00,
2013-01-15 02:32:00,21.0,10.0,29.44,North,4,0.0,0.0,62,0.00,,---,0.00,VWS V14.00,2013-01-15 08:32:00,
2013-01-15 02:35:00,21.0,10.0,29.44,North,357,0.0,0.0,62,0.00,,---,0.00,VWS V14.00,2013-01-15 08:35:00,
2013-01-15 02:41:00,21.2,9.9,29.44,North,357,0.0,0.0,61,0.00,,---,0.00,VWS V14.00,2013-01-15 08:41:00,
2013-01-15 02:47:00,20.6,9.0,29.44,North,357,0.0,0.0,60,0.00,,---,0.00,VWS V14.00,2013-01-15 08:47:00,
2013-01-15 02:49:00,20.6,9.0,29.44,North,357,0.0,0.0,60,0.00,,---,0.00,VWS V14.00,2013-01-15 08:49:00,
2013-01-15 02:53:00,20.6,9.0,29.44,North,357,0.0,0.0,60,0.00,,---,0.00,VWS V14.00,2013-01-15 08:53:00,
2013-01-15 02:56:00,20.5,8.8,29.44,North,357,0.0,0.0,60,0.00,,---,0.00,VWS V14.00,2013-01-15 08:56:00,
2013-01-15 02:59:00,20.5,8.8,29.44,North,0,0.0,0.0,60,0.00,,---,0.00,VWS V14.00,2013-01-15 08:59:00,
2013-01-15 03:02:00,20.5,8.8,29.44,North,0,0.0,0.0,60,0.00,,---,0.00,VWS V14.00,2013-01-15 09:02:00,
2013-01-15 03:08:00,20.5,8.8,29.44,North,0,0.0,0.0,60,0.00,,---,0.00,VWS V14.00,2013-01-15 09:08:00,
2013-01-15 03:11:00,20.5,8.8,29.44,NNW,344,0.0,0.0,60,0.00,,---,0.00,VWS V14.00,2013-01-15 09:11:00,
2013-01-15 03:14:00,20.5,8.4,29.44,North,353,0.0,0.0,59,0.00,,---,0.00,VWS V14.00,2013-01-15 09:14:00,
2013-01-15 03:17:00,20.5,8.4,29.44,NNW,343,0.0,0.0,59,0.00,,---,0.00,VWS V14.00,2013-01-15 09:17:00,
2013-01-15 03:19:00,20.5,8.4,29.44,NNW,343,0.0,0.0,59,0.00,,---,0.00,VWS V14.00,2013-01-15 09:19:00,
2013-01-15 03:26:00,20.5,8.4,29.44,North,353,0.0,0.0,59,0.00,,---,0.00,VWS V14.00,2013-01-15 09:26:00,
2013-01-15 03:32:00,20.6,8.6,29.41,North,353,0.0,0.0,59,0.00,,---,0.00,VWS V14.00,2013-01-15 09:32:00,
2013-01-15 03:38:00,20.6,9.0,29.41,NNW,341,3.1,3.1,60,0.00,,---,0.00,VWS V14.00,2013-01-15 09:38:00,
2013-01-15 03:41:00,20.6,9.0,29.41,North,353,0.0,3.1,60,0.00,,---,0.00,VWS V14.00,2013-01-15 09:41:00,
2013-01-15 03:44:00,20.8,9.1,29.41,NNW,344,3.6,3.6,60,0.00,,---,0.00,VWS V14.00,2013-01-15 09:44:00,
2013-01-15 03:47:00,20.8,9.1,29.41,NNW,335,2.7,3.6,60,0.00,,---,0.00,VWS V14.00,2013-01-15 09:47:00,
2013-01-15 03:49:00,20.8,9.1,29.41,NNW,338,0.0,3.6,60,0.00,,---,0.00,VWS V14.00,2013-01-15 09:49:00,
2013-01-15 03:50:00,20.8,9.1,29.41,NNW,338,0.0,0.0,60,0.00,,---,0.00,VWS V14.00,2013-01-15 09:50:00,
2013-01-15 03:53:00,20.8,9.1,29.41,NNW,341,2.7,2.7,60,0.00,,---,0.00,VWS V14.00,2013-01-15 09:53:00,
2013-01-15 03:56:00,20.8,9.1,29.41,NNW,337,0.0,2.7,60,0.00,,---,0.00,VWS V14.00,2013-01-15 09:56:00,
2013-01-15 04:02:00,21.0,9.3,29.41,NNW,337,0.0,2.7,60,0.00,,---,0.00,VWS V14.00,2013-01-15 10:02:00,
2013-01-15 04:04:00,20.8,9.1,29.41,North,349,2.2,2.7,60,0.00,,---,0.00,VWS V14.00,2013-01-15 10:04:00,
2013-01-15 04:08:00,20.6,9.0,29.41,NNW,348,0.0,2.2,60,0.00,,---,0.00,VWS V14.00,2013-01-15 10:08:00,
2013-01-15 04:14:00,20.3,8.2,29.41,NNW,341,0.0,2.2,59,0.00,,---,0.00,VWS V14.00,2013-01-15 10:14:00,
2013-01-15 04:17:00,19.9,7.9,29.41,NNW,341,0.0,2.2,59,0.00,,---,0.00,VWS V14.00,2013-01-15 10:17:00,
2013-01-15 04:19:00,19.9,7.9,29.41,North,0,0.0,2.2,59,0.00,,---,0.00,VWS V14.00,2013-01-15 10:19:00,
2013-01-15 04:23:00,19.9,7.9,29.41,North,353,0.0,0.0,59,0.00,,---,0.00,VWS V14.00,2013-01-15 10:23:00,
2013-01-15 04:26:00,19.7,7.8,29.41,North,353,0.0,0.0,59,0.00,,---,0.00,VWS V14.00,2013-01-15 10:26:00,
2013-01-15 04:32:00,19.6,7.6,29.41,NNW,344,0.0,0.0,59,0.00,,---,0.00,VWS V14.00,2013-01-15 10:32:00,
2013-01-15 04:34:00,19.6,7.6,29.41,NNW,344,0.0,0.0,59,0.00,,---,0.00,VWS V14.00,2013-01-15 10:34:00,
2013-01-15 04:35:00,19.6,7.6,29.41,North,353,0.0,0.0,59,0.00,,---,0.00,VWS V14.00,2013-01-15 10:35:00,
2013-01-15 04:41:00,19.4,7.4,29.41,North,357,0.0,0.0,59,0.00,,---,0.00,VWS V14.00,2013-01-15 10:41:00,
2013-01-15 04:44:00,19.6,7.9,29.41,North,357,0.0,0.0,60,0.00,,---,0.00,VWS V14.00,2013-01-15 10:44:00,
2013-01-15 04:49:00,19.7,8.1,29.41,North,357,0.0,0.0,60,0.00,,---,0.00,VWS V14.00,2013-01-15 10:49:00,
2013-01-15 04:50:00,19.9,8.3,29.41,North,357,0.0,0.0,60,0.00,,---,0.00,VWS V14.00,2013-01-15 10:50:00,
2013-01-15 04:56:00,20.1,8.8,29.41,North,357,0.0,0.0,61,0.00,,---,0.00,VWS V14.00,2013-01-15 10:56:00,
2013-01-15 04:59:00,20.1,8.8,29.41,North,357,0.0,0.0,61,0.00,,---,0.00,VWS V14.00,2013-01-15 10:59:00,
2013-01-15 05:05:00,20.5,9.2,29.41,North,357,0.0,0.0,61,0.00,,---,0.00,VWS V14.00,2013-01-15 11:05:00,
2013-01-15 05:08:00,20.5,9.5,29.41,WNW,285,0.0,0.0,62,0.00,,---,0.00,VWS V14.00,2013-01-15 11:08:00,
2013-01-15 05:11:00,20.5,9.5,29.41,WNW,285,0.0,0.0,62,0.00,,---,0.00,VWS V14.00,2013-01-15 11:11:00,
2013-01-15 05:17:00,20.8,10.2,29.41,WNW,285,0.0,0.0,63,0.00,,---,0.00,VWS V14.00,2013-01-15 11:17:00,
2013-01-15 05:23:00,20.6,9.7,29.41,WNW,285,0.0,0.0,62,0.00,,---,0.00,VWS V14.00,2013-01-15 11:23:00,
2013-01-15 05:26:00,20.3,9.4,29.41,WNW,285,0.0,0.0,62,0.00,,---,0.00,VWS V14.00,2013-01-15 11:26:00,
2013-01-15 05:32:00,19.6,8.3,29.41,WNW,285,0.0,0.0,61,0.00,,---,0.00,VWS V14.00,2013-01-15 11:32:00,
2013-01-15 05:34:00,19.6,8.3,29.41,WNW,285,0.0,0.0,61,0.00,,---,0.00,VWS V14.00,2013-01-15 11:34:00,
2013-01-15 05:38:00,19.4,8.1,29.38,West,281,0.0,0.0,61,0.00,,---,0.00,VWS V14.00,2013-01-15 11:38:00,
2013-01-15 05:42:00,19.2,8.3,29.38,West,281,0.0,0.0,62,0.00,,---,0.00,VWS V14.00,2013-01-15 11:42:00,
2013-01-15 05:45:00,19.2,8.3,29.38,West,281,0.0,0.0,62,0.00,,---,0.00,VWS V14.00,2013-01-15 11:45:00,
2013-01-15 05:48:00,19.4,8.1,29.38,West,281,0.0,0.0,61,0.00,,---,0.00,VWS V14.00,2013-01-15 11:48:00,
2013-01-15 05:49:00,19.4,8.5,29.38,West,281,0.0,0.0,62,0.00,,---,0.00,VWS V14.00,2013-01-15 11:49:00,
2013-01-15 05:51:00,19.4,8.5,29.38,West,281,0.0,0.0,62,0.00,,---,0.00,VWS V14.00,2013-01-15 11:51:00,
2013-01-15 05:57:00,19.9,9.4,29.38,West,281,0.0,0.0,63,0.00,,---,0.00,VWS V14.00,2013-01-15 11:57:00,
2013-01-15 06:03:00,19.7,9.2,29.38,West,277,0.0,0.0,63,0.00,,---,0.00,VWS V14.00,2013-01-15 12:03:00,
2013-01-15 06:04:00,19.6,9.0,29.38,West,277,0.0,0.0,63,0.00,,---,0.00,VWS V14.00,2013-01-15 12:04:00,
2013-01-15 06:06:00,19.6,9.0,29.38,West,277,0.0,0.0,63,0.00,,---,0.00,VWS V14.00,2013-01-15 12:06:00,
2013-01-15 06:09:00,19.4,8.9,29.38,West,277,0.0,0.0,63,0.00,,---,0.00,VWS V14.00,2013-01-15 12:09:00,
2013-01-15 06:12:00,19.4,8.9,29.38,West,277,0.0,0.0,63,0.00,,---,0.00,VWS V14.00,2013-01-15 12:12:00,
2013-01-15 06:15:00,19.2,8.7,29.38,West,277,0.0,0.0,63,0.00,,---,0.00,VWS V14.00,2013-01-15 12:15:00,
2013-01-15 06:18:00,19.2,8.7,29.41,West,277,0.0,0.0,63,0.00,,---,0.00,VWS V14.00,2013-01-15 12:18:00,
2013-01-15 06:19:00,19.6,9.0,29.41,West,277,0.0,0.0,63,0.00,,---,0.00,VWS V14.00,2013-01-15 12:19:00,
2013-01-15 06:21:00,19.6,9.0,29.41,West,277,0.0,0.0,63,0.00,,---,0.00,VWS V14.00,2013-01-15 12:21:00,
2013-01-15 06:27:00,19.6,9.4,29.41,West,277,0.0,0.0,64,0.00,,---,0.00,VWS V14.00,2013-01-15 12:27:00,
2013-01-15 06:33:00,19.9,9.7,29.41,NNW,327,0.0,0.0,64,0.00,,---,0.00,VWS V14.00,2013-01-15 12:33:00,
2013-01-15 06:34:00,19.9,9.7,29.41,NNW,327,0.0,0.0,64,0.00,,---,0.00,VWS V14.00,2013-01-15 12:34:00,
2013-01-15 06:42:00,20.1,9.9,29.41,NW,325,0.0,0.0,64,0.00,,---,0.00,VWS V14.00,2013-01-15 12:42:00,
2013-01-15 06:45:00,20.1,9.9,29.41,NW,325,0.0,0.0,64,0.00,,---,0.00,VWS V14.00,2013-01-15 12:45:00,
2013-01-15 06:48:00,20.1,9.9,29.41,NW,319,0.0,0.0,64,0.00,,---,0.00,VWS V14.00,2013-01-15 12:48:00,
2013-01-15 06:54:00,19.9,9.4,29.44,NW,319,0.0,0.0,63,0.00,,---,0.00,VWS V14.00,2013-01-15 12:54:00,
2013-01-15 06:57:00,20.1,9.5,29.44,NW,319,0.0,0.0,63,0.00,,---,0.00,VWS V14.00,2013-01-15 12:57:00,
2013-01-15 07:00:00,20.1,9.5,29.44,NNW,346,0.0,0.0,63,0.00,,---,0.00,VWS V14.00,2013-01-15 13:00:00,
2013-01-15 07:03:00,20.1,9.5,29.44,NNW,346,0.0,0.0,63,0.00,,---,0.00,VWS V14.00,2013-01-15 13:03:00,
2013-01-15 07:06:00,19.7,9.2,29.44,North,353,0.0,0.0,63,0.00,,---,0.00,VWS V14.00,2013-01-15 13:06:00,
2013-01-15 07:09:00,19.7,9.2,29.44,North,353,0.0,0.0,63,0.00,,---,0.00,VWS V14.00,2013-01-15 13:09:00,
2013-01-15 07:12:00,19.2,8.7,29.44,North,353,0.0,0.0,63,0.00,,---,0.00,VWS V14.00,2013-01-15 13:12:00,
2013-01-15 07:15:00,19.2,8.7,29.41,North,353,0.0,0.0,63,0.00,,---,0.00,VWS V14.00,2013-01-15 13:15:00,
2013-01-15 07:18:00,19.2,8.7,29.41,North,353,0.0,0.0,63,0.00,,---,0.00,VWS V14.00,2013-01-15 13:18:00,
2013-01-15 07:19:00,19.2,8.7,29.41,North,353,0.0,0.0,63,0.00,,---,0.00,VWS V14.00,2013-01-15 13:19:00,
2013-01-15 07:24:00,19.0,8.5,29.41,North,353,0.0,0.0,63,0.00,,---,0.00,VWS V14.00,2013-01-15 13:24:00,
2013-01-15 07:27:00,19.0,8.5,29.41,North,353,0.0,0.0,63,0.00,,---,0.00,VWS V14.00,2013-01-15 13:27:00,
2013-01-15 07:30:00,19.0,8.5,29.41,North,353,0.0,0.0,63,0.00,,---,0.00,VWS V14.00,2013-01-15 13:30:00,
2013-01-15 07:33:00,19.4,9.2,29.41,North,353,0.0,0.0,64,0.00,,---,0.00,VWS V14.00,2013-01-15 13:33:00,
2013-01-15 07:36:00,19.4,9.2,29.41,North,353,0.0,0.0,64,0.00,,---,0.00,VWS V14.00,2013-01-15 13:36:00,
2013-01-15 07:39:00,19.4,9.2,29.41,North,353,0.0,0.0,64,0.00,,---,0.00,VWS V14.00,2013-01-15 13:39:00,
2013-01-15 07:42:00,19.2,9.0,29.41,North,353,0.0,0.0,64,0.00,,---,0.00,VWS V14.00,2013-01-15 13:42:00,
2013-01-15 07:45:00,19.4,9.2,29.41,North,353,0.0,0.0,64,0.00,,---,0.00,VWS V14.00,2013-01-15 13:45:00,
2013-01-15 07:48:00,19.4,9.2,29.41,North,353,0.0,0.0,64,0.00,,---,0.00,VWS V14.00,2013-01-15 13:48:00,
2013-01-15 07:51:00,19.4,9.2,29.41,North,353,0.0,0.0,64,0.00,,---,0.00,VWS V14.00,2013-01-15 13:51:00,
2013-01-15 07:57:00,20.5,10.6,29.41,North,353,0.0,0.0,65,0.00,,---,0.00,VWS V14.00,2013-01-15 13:57:00,
2013-01-15 08:00:00,20.5,10.6,29.44,North,353,0.0,0.0,65,0.00,,---,0.00,VWS V14.00,2013-01-15 14:00:00,
2013-01-15 08:06:00,21.0,11.4,29.44,North,353,0.0,0.0,66,0.00,,---,0.00,VWS V14.00,2013-01-15 14:06:00,
2013-01-15 08:09:00,21.0,11.4,29.44,North,353,0.0,0.0,66,0.00,,---,0.00,VWS V14.00,2013-01-15 14:09:00,
2013-01-15 08:12:00,22.1,12.1,29.44,North,353,0.0,0.0,65,0.00,,---,0.00,VWS V14.00,2013-01-15 14:12:00,
2013-01-15 08:15:00,22.3,12.3,29.44,North,353,0.0,0.0,65,0.00,,---,0.00,VWS V14.00,2013-01-15 14:15:00,
2013-01-15 08:21:00,22.6,12.3,29.44,North,353,0.0,0.0,64,0.00,,---,0.00,VWS V14.00,2013-01-15 14:21:00,
2013-01-15 08:27:00,22.6,11.9,29.41,North,350,0.0,0.0,63,0.00,,---,0.00,VWS V14.00,2013-01-15 14:27:00,
2013-01-15 08:30:00,22.4,11.4,29.41,NNW,337,0.0,0.0,62,0.00,,---,0.00,VWS V14.00,2013-01-15 14:30:00,
2013-01-15 08:33:00,22.4,11.0,29.41,North,353,0.0,0.0,61,0.00,,---,0.00,VWS V14.00,2013-01-15 14:33:00,
2013-01-15 08:36:00,22.1,10.7,29.41,NNW,336,0.0,0.0,61,0.00,,---,0.00,VWS V14.00,2013-01-15 14:36:00,
2013-01-15 08:39:00,21.9,10.2,29.41,NNW,337,0.0,0.0,60,0.00,,---,0.00,VWS V14.00,2013-01-15 14:39:00,
2013-01-15 08:45:00,21.9,10.2,29.41,North,353,0.0,0.0,60,0.00,,---,0.00,VWS V14.00,2013-01-15 14:45:00,
2013-01-15 08:48:00,22.4,11.0,29.41,NNW,341,0.0,2.2,61,0.00,,---,0.00,VWS V14.00,2013-01-15 14:48:00,
2013-01-15 08:54:00,21.9,10.2,29.41,NNW,343,0.0,0.0,60,0.00,,---,0.00,VWS V14.00,2013-01-15 14:54:00,
2013-01-15 08:57:00,21.9,9.8,29.38,North,4,0.0,2.7,59,0.00,,---,0.00,VWS V14.00,2013-01-15 14:57:00,
2013-01-15 09:00:00,21.9,9.8,29.38,North,353,0.0,2.7,59,0.00,,---,0.00,VWS V14.00,2013-01-15 15:00:00,
2013-01-15 09:04:00,21.9,9.8,29.38,NNW,348,0.0,2.7,59,0.00,,---,0.00,VWS V14.00,2013-01-15 15:04:00,
2013-01-15 09:06:00,22.1,9.9,29.38,NNW,346,0.0,0.0,59,0.00,,---,0.00,VWS V14.00,2013-01-15 15:06:00,
2013-01-15 09:12:00,22.1,9.9,29.38,NNW,334,0.0,0.0,59,0.00,,---,0.00,VWS V14.00,2013-01-15 15:12:00,
2013-01-15 09:15:00,22.4,10.3,29.38,NNW,334,0.0,0.0,59,0.00,,---,0.00,VWS V14.00,2013-01-15 15:15:00,
2013-01-15 09:18:00,22.4,10.3,29.38,North,3,0.0,0.0,59,0.00,,---,0.00,VWS V14.00,2013-01-15 15:18:00,
2013-01-15 09:19:00,22.4,10.3,29.38,North,3,0.0,0.0,59,0.00,,---,0.00,VWS V14.00,2013-01-15 15:19:00,
2013-01-15 09:24:00,23.3,11.5,29.38,SE,124,0.0,2.7,60,0.00,,---,0.00,VWS V14.00,2013-01-15 15:24:00,
2013-01-15 09:27:00,23.7,12.2,29.41,SE,124,0.0,2.7,61,0.00,,---,0.00,VWS V14.00,2013-01-15 15:27:00,
2013-01-15 09:30:00,24.1,12.6,29.41,SE,124,0.0,2.7,61,0.00,,---,0.00,VWS V14.00,2013-01-15 15:30:00,
2013-01-15 09:33:00,24.1,12.6,29.41,SE,145,3.1,3.1,61,0.00,,---,0.00,VWS V14.00,2013-01-15 15:33:00,
2013-01-15 09:36:00,24.2,13.1,29.41,SE,146,2.7,3.1,62,0.00,,---,0.00,VWS V14.00,2013-01-15 15:36:00,
2013-01-15 09:42:00,24.4,13.3,29.41,SE,146,2.7,3.1,62,0.00,,---,0.00,VWS V14.00,2013-01-15 15:42:00,
2013-01-15 09:45:00,24.4,12.9,29.41,SE,146,2.7,3.1,61,0.00,,---,0.00,VWS V14.00,2013-01-15 15:45:00,
2013-01-15 09:48:00,24.4,12.9,29.41,SE,146,2.7,3.1,61,0.00,,---,0.00,VWS V14.00,2013-01-15 15:48:00,
2013-01-15 09:49:00,24.4,12.9,29.41,SSW,207,0.0,3.1,61,0.00,,---,0.00,VWS V14.00,2013-01-15 15:49:00,
2013-01-15 09:51:00,24.6,13.1,29.41,SSW,207,0.0,0.0,61,0.00,,---,0.00,VWS V14.00,2013-01-15 15:51:00,
2013-01-15 09:57:00,24.6,12.7,29.44,NNW,337,0.0,0.0,60,0.00,,---,0.00,VWS V14.00,2013-01-15 15:57:00,
2013-01-15 10:00:00,24.4,12.5,29.44,NNW,337,0.0,0.0,60,0.00,,---,0.00,VWS V14.00,2013-01-15 16:00:00,
2013-01-15 10:06:00,24.2,12.4,29.44,North,0,0.0,0.0,60,0.00,,---,0.00,VWS V14.00,2013-01-15 16:06:00,
2013-01-15 10:09:00,24.4,12.5,29.44,SW,228,2.7,2.7,60,0.00,,---,0.00,VWS V14.00,2013-01-15 16:09:00,
2013-01-15 10:15:00,24.2,12.0,29.44,SSW,210,0.0,2.7,59,0.00,,---,0.00,VWS V14.00,2013-01-15 16:15:00,
2013-01-15 10:21:00,24.2,11.6,29.44,SSW,213,0.0,0.0,58,0.00,,---,0.00,VWS V14.00,2013-01-15 16:21:00,
2013-01-15 10:24:00,24.2,11.6,29.44,SSW,213,0.0,0.0,58,0.00,,---,0.00,VWS V14.00,2013-01-15 16:24:00,
2013-01-15 10:27:00,24.4,12.2,29.44,SSW,213,0.0,0.0,59,0.00,,---,0.00,VWS V14.00,2013-01-15 16:27:00,
2013-01-15 10:30:00,24.6,12.3,29.44,WSW,237,0.0,0.0,59,0.00,,---,0.00,VWS V14.00,2013-01-15 16:30:00,
2013-01-15 10:33:00,24.6,12.3,29.47,WSW,237,0.0,0.0,59,0.00,,---,0.00,VWS V14.00,2013-01-15 16:33:00,
2013-01-15 10:34:00,24.6,12.3,29.47,WSW,237,0.0,0.0,59,0.00,,---,0.00,VWS V14.00,2013-01-15 16:34:00,
2013-01-15 10:40:00,24.6,11.9,29.44,WSW,237,0.0,0.0,58,0.00,,---,0.00,VWS V14.00,2013-01-15 16:40:00,
2013-01-15 10:43:00,24.6,11.9,29.44,WSW,237,0.0,0.0,58,0.00,,---,0.00,VWS V14.00,2013-01-15 16:43:00,
2013-01-15 10:46:00,24.8,11.7,29.44,WSW,237,0.0,0.0,57,0.00,,---,0.00,VWS V14.00,2013-01-15 16:46:00,
2013-01-15 10:49:00,25.0,11.9,29.44,WSW,237,0.0,0.0,57,0.00,,---,0.00,VWS V14.00,2013-01-15 16:49:00,
2013-01-15 10:55:00,25.9,13.1,29.44,WSW,237,0.0,0.0,58,0.00,,---,0.00,VWS V14.00,2013-01-15 16:55:00,
2013-01-15 10:58:00,26.4,13.6,29.44,WSW,237,2.2,2.2,58,0.00,,---,0.00,VWS V14.00,2013-01-15 16:58:00,
2013-01-15 11:01:00,26.4,13.6,29.44,SW,226,2.2,2.2,58,0.00,,---,0.00,VWS V14.00,2013-01-15 17:01:00,
2013-01-15 11:04:00,26.6,13.8,29.44,SW,226,2.2,2.2,58,0.00,,---,0.00,VWS V14.00,2013-01-15 17:04:00,
2013-01-15 11:10:00,26.6,14.2,29.44,ENE,78,2.7,2.7,59,0.00,,---,0.00,VWS V14.00,2013-01-15 17:10:00,
2013-01-15 11:16:00,26.4,14.4,29.41,ESE,102,0.0,2.7,60,0.00,,---,0.00,VWS V14.00,2013-01-15 17:16:00,
2013-01-15 11:19:00,25.3,13.4,29.41,ESE,102,0.0,2.7,60,0.00,,---,0.00,VWS V14.00,2013-01-15 17:19:00,
2013-01-15 11:22:00,25.3,13.4,29.41,ESE,102,0.0,0.0,60,0.00,,---,0.00,VWS V14.00,2013-01-15 17:22:00,
2013-01-15 11:28:00,24.4,12.9,29.41,ESE,102,0.0,0.0,61,0.00,,---,0.00,VWS V14.00,2013-01-15 17:28:00,
2013-01-15 11:34:00,24.4,13.3,29.44,ESE,102,0.0,0.0,62,0.00,,---,0.00,VWS V14.00,2013-01-15 17:34:00,
2013-01-15 11:40:00,25.0,14.5,29.44,North,357,0.0,0.0,64,0.00,,---,0.00,VWS V14.00,2013-01-15 17:40:00,
2013-01-15 11:43:00,24.8,14.4,29.44,SE,131,0.0,0.0,64,0.00,,---,0.00,VWS V14.00,2013-01-15 17:43:00,
2013-01-15 11:46:00,24.8,14.4,29.44,SE,131,0.0,0.0,64,0.00,,---,0.00,VWS V14.00,2013-01-15 17:46:00,
2013-01-15 11:49:00,24.8,14.4,29.41,SE,131,0.0,0.0,64,0.00,,---,0.00,VWS V14.00,2013-01-15 17:49:00,
2013-01-15 11:55:00,24.4,14.4,29.41,SE,131,0.0,0.0,65,0.00,,---,0.00,VWS V14.00,2013-01-15 17:55:00,
2013-01-15 11:58:00,24.4,14.4,29.41,SE,131,0.0,0.0,65,0.00,,---,0.00,VWS V14.00,2013-01-15 17:58:00,
2013-01-15 12:01:00,25.1,15.4,29.41,SE,131,0.0,0.0,66,0.00,,---,0.00,VWS V14.00,2013-01-15 18:01:00,
2013-01-15 12:04:00,25.7,15.9,29.41,SSE,168,2.7,3.1,66,0.00,,---,0.00,VWS V14.00,2013-01-15 18:04:00,
2013-01-15 12:07:00,25.9,16.1,29.41,ESE,112,0.0,0.0,66,0.00,,---,0.00,VWS V14.00,2013-01-15 18:07:00,
2013-01-15 12:10:00,26.0,16.2,29.38,ESE,112,0.0,0.0,66,0.00,,---,0.00,VWS V14.00,2013-01-15 18:10:00,
2013-01-15 12:16:00,26.4,16.6,29.38,East,91,0.0,0.0,66,0.00,,---,0.00,VWS V14.00,2013-01-15 18:16:00,
2013-01-15 12:19:00,26.8,16.6,29.38,East,91,0.0,0.0,65,0.00,,---,0.00,VWS V14.00,2013-01-15 18:19:00,
2013-01-15 12:25:00,27.1,16.9,29.38,SE,135,0.0,0.0,65,0.00,,---,0.00,VWS V14.00,2013-01-15 18:25:00,
2013-01-15 12:31:00,27.3,16.8,29.38,SE,135,0.0,0.0,64,0.00,,---,0.00,VWS V14.00,2013-01-15 18:31:00,
2013-01-15 12:34:00,26.8,15.9,29.35,SE,135,0.0,0.0,63,0.00,,---,0.00,VWS V14.00,2013-01-15 18:34:00,
2013-01-15 12:40:00,26.6,15.3,29.35,North,0,0.0,0.0,62,0.00,,---,0.00,VWS V14.00,2013-01-15 18:40:00,
2013-01-15 12:43:00,26.2,15.4,29.35,North,4,0.0,0.0,63,0.00,,---,0.00,VWS V14.00,2013-01-15 18:43:00,
2013-01-15 12:46:00,26.4,15.2,29.35,North,4,0.0,0.0,62,0.00,,---,0.00,VWS V14.00,2013-01-15 18:46:00,
2013-01-15 12:49:00,26.4,15.2,29.35,ENE,66,0.0,0.0,62,0.00,,---,0.00,VWS V14.00,2013-01-15 18:49:00,
2013-01-15 12:52:00,26.4,15.2,29.35,ENE,66,0.0,0.0,62,0.00,,---,0.00,VWS V14.00,2013-01-15 18:52:00,
2013-01-15 12:55:00,26.8,15.9,29.35,North,5,3.1,3.1,63,0.00,,---,0.00,VWS V14.00,2013-01-15 18:55:00,
2013-01-15 12:58:00,26.6,15.7,29.35,North,5,3.1,3.1,63,0.00,,---,0.00,VWS V14.00,2013-01-15 18:58:00,
2013-01-15 13:01:00,26.6,15.7,29.35,North,5,3.1,3.1,63,0.00,,---,0.00,VWS V14.00,2013-01-15 19:01:00,
2013-01-15 13:04:00,26.2,15.0,29.35,North,0,0.0,3.1,62,0.00,,---,0.00,VWS V14.00,2013-01-15 19:04:00,
2013-01-15 13:07:00,26.6,15.3,29.35,North,0,0.0,0.0,62,0.00,,---,0.00,VWS V14.00,2013-01-15 19:07:00,
2013-01-15 13:10:00,27.3,16.4,29.35,North,0,0.0,0.0,63,0.00,,---,0.00,VWS V14.00,2013-01-15 19:10:00,
2013-01-15 13:16:00,28.0,17.4,29.35,North,0,0.0,0.0,64,0.00,,---,0.00,VWS V14.00,2013-01-15 19:16:00,
2013-01-15 13:19:00,28.0,17.4,29.35,North,0,0.0,0.0,64,0.00,,---,0.00,VWS V14.00,2013-01-15 19:19:00,
2013-01-15 13:22:00,28.9,17.5,29.35,North,0,0.0,0.0,62,0.00,,---,0.00,VWS V14.00,2013-01-15 19:22:00,
2013-01-15 13:25:00,28.9,17.5,29.35,North,0,0.0,0.0,62,0.00,,---,0.00,VWS V14.00,2013-01-15 19:25:00,
2013-01-15 13:28:00,29.3,17.9,29.32,North,0,0.0,0.0,62,0.00,,---,0.00,VWS V14.00,2013-01-15 19:28:00,
2013-01-15 13:31:00,29.8,18.0,29.32,North,0,0.0,0.0,61,0.00,,---,0.00,VWS V14.00,2013-01-15 19:31:00,
2013-01-15 13:34:00,30.2,18.4,29.32,North,0,0.0,0.0,61,0.00,,---,0.00,VWS V14.00,2013-01-15 19:34:00,
2013-01-15 13:37:00,30.5,18.7,29.32,North,0,0.0,0.0,61,0.00,,---,0.00,VWS V14.00,2013-01-15 19:37:00,
2013-01-15 13:43:00,30.4,18.5,29.32,North,0,0.0,0.0,61,0.00,,---,0.00,VWS V14.00,2013-01-15 19:43:00,
2013-01-15 13:49:00,30.4,18.1,29.32,North,0,0.0,0.0,60,0.00,,---,0.00,VWS V14.00,2013-01-15 19:49:00,
2013-01-15 13:52:00,30.4,18.1,29.32,North,0,0.0,0.0,60,0.00,,---,0.00,VWS V14.00,2013-01-15 19:52:00,
2013-01-15 13:58:00,30.2,17.6,29.32,North,0,0.0,0.0,59,0.00,,---,0.00,VWS V14.00,2013-01-15 19:58:00,
2013-01-15 14:04:00,29.6,17.1,29.32,NNW,346,0.0,0.0,59,0.00,,---,0.00,VWS V14.00,2013-01-15 20:04:00,
2013-01-15 14:10:00,30.0,17.8,29.32,NNW,346,0.0,0.0,60,0.00,,---,0.00,VWS V14.00,2013-01-15 20:10:00,
2013-01-15 14:16:00,30.0,17.8,29.32,NNW,346,0.0,0.0,60,0.00,,---,0.00,VWS V14.00,2013-01-15 20:16:00,
2013-01-15 14:19:00,29.6,17.5,29.32,NNW,340,0.0,0.0,60,0.00,,---,0.00,VWS V14.00,2013-01-15 20:19:00,
2013-01-15 14:22:00,30.2,18.0,29.32,NNW,343,0.0,0.0,60,0.00,,---,0.00,VWS V14.00,2013-01-15 20:22:00,
2013-01-15 14:25:00,30.5,18.3,29.29,NNW,343,0.0,0.0,60,0.00,,---,0.00,VWS V14.00,2013-01-15 20:25:00,
2013-01-15 14:28:00,31.3,19.4,29.29,North,353,0.0,0.0,61,0.00,,---,0.00,VWS V14.00,2013-01-15 20:28:00,
2013-01-15 14:31:00,31.6,19.3,29.29,North,353,0.0,0.0,60,0.00,,---,0.00,VWS V14.00,2013-01-15 20:31:00,
2013-01-15 14:34:00,31.6,19.3,29.29,North,353,0.0,0.0,60,0.00,,---,0.00,VWS V14.00,2013-01-15 20:34:00,
2013-01-15 14:37:00,31.8,19.1,29.29,North,5,0.0,0.0,59,0.00,,---,0.00,VWS V14.00,2013-01-15 20:37:00,
2013-01-15 14:40:00,32.3,19.6,29.29,North,5,0.0,0.0,59,0.00,,---,0.00,VWS V14.00,2013-01-15 20:40:00,
2013-01-15 14:43:00,32.7,20.0,29.29,North,5,0.0,0.0,59,0.00,,---,0.00,VWS V14.00,2013-01-15 20:43:00,
2013-01-15 14:46:00,32.7,20.0,29.29,SE,143,0.0,0.0,59,0.00,,---,0.00,VWS V14.00,2013-01-15 20:46:00,
2013-01-15 14:49:00,33.1,19.9,29.29,North,353,0.0,0.0,58,0.00,,---,0.00,VWS V14.00,2013-01-15 20:49:00,
2013-01-15 14:52:00,33.1,19.9,29.29,North,353,0.0,0.0,58,0.00,,---,0.00,VWS V14.00,2013-01-15 20:52:00,
2013-01-15 14:58:00,33.1,19.5,29.29,North,5,4.0,4.0,57,0.00,,---,0.00,VWS V14.00,2013-01-15 20:58:00,
2013-01-15 15:04:00,33.4,19.8,29.29,North,3,2.7,4.0,57,0.00,,---,0.00,VWS V14.00,2013-01-15 21:04:00,
2013-01-15 15:10:00,33.6,19.6,29.29,North,7,0.0,2.7,56,0.00,,---,0.00,VWS V14.00,2013-01-15 21:10:00,
2013-01-15 15:13:00,33.4,19.8,29.29,North,7,0.0,2.7,57,0.00,,---,0.00,VWS V14.00,2013-01-15 21:13:00,
2013-01-15 15:19:00,33.4,19.4,29.29,North,7,0.0,2.7,56,0.00,,---,0.00,VWS V14.00,2013-01-15 21:19:00,
2013-01-15 15:25:00,33.1,19.1,29.29,ENE,68,0.0,0.0,56,0.00,,---,0.00,VWS V14.00,2013-01-15 21:25:00,
2013-01-15 15:32:00,31.6,17.7,29.29,ENE,68,0.0,0.0,56,0.00,,---,0.00,VWS V14.00,2013-01-15 21:32:00,
2013-01-15 15:34:00,31.1,17.2,29.29,ENE,68,0.0,0.0,56,0.00,,---,0.00,VWS V14.00,2013-01-15 21:34:00,
2013-01-15 15:38:00,31.1,17.2,29.29,ENE,68,0.0,0.0,56,0.00,,---,0.00,VWS V14.00,2013-01-15 21:38:00,
2013-01-15 15:44:00,30.5,17.1,29.29,SE,144,0.0,0.0,57,0.00,,---,0.00,VWS V14.00,2013-01-15 21:44:00,
2013-01-15 15:49:00,30.5,17.1,29.29,SE,144,0.0,0.0,57,0.00,,---,0.00,VWS V14.00,2013-01-15 21:49:00,
2013-01-15 15:50:00,30.5,17.1,29.29,SE,144,0.0,0.0,57,0.00,,---,0.00,VWS V14.00,2013-01-15 21:50:00,
2013-01-15 15:56:00,31.3,18.2,29.29,SE,144,0.0,0.0,58,0.00,,---,0.00,VWS V14.00,2013-01-15 21:56:00,
2013-01-15 15:59:00,31.4,18.8,29.29,SE,144,0.0,0.0,59,0.00,,---,0.00,VWS V14.00,2013-01-15 21:59:00,
2013-01-15 16:04:00,31.8,18.7,29.29,SE,144,0.0,0.0,58,0.00,,---,0.00,VWS V14.00,2013-01-15 22:04:00,
2013-01-15 16:05:00,31.8,18.7,29.29,SE,144,0.0,0.0,58,0.00,,---,0.00,VWS V14.00,2013-01-15 22:05:00,
2013-01-15 16:08:00,31.8,18.7,29.29,SE,144,0.0,0.0,58,0.00,,---,0.00,VWS V14.00,2013-01-15 22:08:00,
2013-01-15 16:14:00,31.8,18.7,29.29,SE,144,0.0,0.0,58,0.00,,---,0.00,VWS V14.00,2013-01-15 22:14:00,
2013-01-15 16:17:00,31.6,18.5,29.29,SE,144,0.0,0.0,58,0.00,,---,0.00,VWS V14.00,2013-01-15 22:17:00,
2013-01-15 16:19:00,31.6,18.5,29.29,SE,144,0.0,0.0,58,0.00,,---,0.00,VWS V14.00,2013-01-15 22:19:00,
2013-01-15 16:20:00,31.6,18.5,29.29,SE,144,0.0,0.0,58,0.00,,---,0.00,VWS V14.00,2013-01-15 22:20:00,
2013-01-15 16:23:00,31.4,18.4,29.29,SE,144,0.0,0.0,58,0.00,,---,0.00,VWS V14.00,2013-01-15 22:23:00,
2013-01-15 16:26:00,31.4,18.4,29.29,SE,144,0.0,0.0,58,0.00,,---,0.00,VWS V14.00,2013-01-15 22:26:00,
2013-01-15 16:32:00,31.6,18.5,29.29,SE,144,0.0,0.0,58,0.00,,---,0.00,VWS V14.00,2013-01-15 22:32:00,
2013-01-15 16:34:00,31.6,18.5,29.29,SE,144,0.0,0.0,58,0.00,,---,0.00,VWS V14.00,2013-01-15 22:34:00,
2013-01-15 16:35:00,31.6,18.5,29.29,SE,144,0.0,0.0,58,0.00,,---,0.00,VWS V14.00,2013-01-15 22:35:00,
2013-01-15 16:41:00,31.8,19.1,29.32,SE,144,0.0,0.0,59,0.00,,---,0.00,VWS V14.00,2013-01-15 22:41:00,
2013-01-15 16:44:00,31.3,18.6,29.32,SE,144,0.0,0.0,59,0.00,,---,0.00,VWS V14.00,2013-01-15 22:44:00,
2013-01-15 16:49:00,30.9,18.3,29.32,SE,144,0.0,0.0,59,0.00,,---,0.00,VWS V14.00,2013-01-15 22:49:00,
2013-01-15 16:53:00,30.5,17.9,29.32,SE,144,0.0,0.0,59,0.00,,---,0.00,VWS V14.00,2013-01-15 22:53:00,
2013-01-15 16:56:00,30.5,17.9,29.32,SE,144,0.0,0.0,59,0.00,,---,0.00,VWS V14.00,2013-01-15 22:56:00,
2013-01-15 16:59:00,30.5,17.9,29.32,SE,144,0.0,0.0,59,0.00,,---,0.00,VWS V14.00,2013-01-15 22:59:00,
2013-01-15 17:04:00,30.5,18.3,29.32,SE,144,0.0,0.0,60,0.00,,---,0.00,VWS V14.00,2013-01-15 23:04:00,
2013-01-15 17:08:00,30.7,18.9,29.32,SE,144,0.0,0.0,61,0.00,,---,0.00,VWS V14.00,2013-01-15 23:08:00,
2013-01-15 17:11:00,30.7,18.9,29.32,SE,144,0.0,0.0,61,0.00,,---,0.00,VWS V14.00,2013-01-15 23:11:00,
2013-01-15 17:14:00,31.1,19.2,29.32,SE,144,0.0,0.0,61,0.00,,---,0.00,VWS V14.00,2013-01-15 23:14:00,
2013-01-15 17:19:00,31.1,19.2,29.32,SE,144,0.0,0.0,61,0.00,,---,0.00,VWS V14.00,2013-01-15 23:19:00,
2013-01-15 17:20:00,31.1,19.2,29.32,SE,144,0.0,0.0,61,0.00,,---,0.00,VWS V14.00,2013-01-15 23:20:00,
2013-01-15 17:23:00,31.1,19.2,29.32,SE,144,0.0,0.0,61,0.00,,---,0.00,VWS V14.00,2013-01-15 23:23:00,
2013-01-15 17:26:00,31.3,19.4,29.29,SE,144,0.0,0.0,61,0.00,,---,0.00,VWS V14.00,2013-01-15 23:26:00,
2013-01-15 17:29:00,31.3,19.4,29.29,SE,144,0.0,0.0,61,0.00,,---,0.00,VWS V14.00,2013-01-15 23:29:00,
2013-01-15 17:32:00,31.3,19.4,29.29,SE,144,0.0,0.0,61,0.00,,---,0.00,VWS V14.00,2013-01-15 23:32:00,
2013-01-15 17:34:00,31.3,19.4,29.29,SE,144,0.0,0.0,61,0.00,,---,0.00,VWS V14.00,2013-01-15 23:34:00,
2013-01-15 17:41:00,31.3,19.8,29.29,SE,144,0.0,0.0,62,0.00,,---,0.00,VWS V14.00,2013-01-15 23:41:00,
2013-01-15 17:44:00,31.3,19.4,29.29,SE,144,0.0,0.0,61,0.00,,---,0.00,VWS V14.00,2013-01-15 23:44:00,
2013-01-15 17:47:00,31.3,19.4,29.29,SE,144,0.0,0.0,61,0.00,,---,0.00,VWS V14.00,2013-01-15 23:47:00,
2013-01-15 17:50:00,31.3,19.4,29.29,SE,144,0.0,0.0,61,0.00,,---,0.00,VWS V14.00,2013-01-15 23:50:00,
2013-01-15 17:53:00,31.3,19.8,29.29,SE,144,0.0,0.0,62,0.00,,---,0.00,VWS V14.00,2013-01-15 23:53:00,
2013-01-15 17:56:00,30.9,19.4,29.29,SE,144,0.0,0.0,62,0.00,,---,0.00,VWS V14.00,2013-01-15 23:56:00,
2013-01-15 18:02:00,30.5,18.7,29.29,SE,144,0.0,0.0,61,0.00,,---,0.00,VWS V14.00,2013-01-16 00:02:00,
2013-01-15 18:04:00,30.5,18.7,29.29,SE,144,0.0,0.0,61,0.00,,---,0.00,VWS V14.00,2013-01-16 00:04:00,
2013-01-15 18:05:00,30.4,18.5,29.29,NNW,345,0.0,0.0,61,0.00,,---,0.00,VWS V14.00,2013-01-16 00:05:00,
2013-01-15 18:11:00,30.4,18.9,29.29,SW,217,3.1,3.1,62,0.00,,---,0.00,VWS V14.00,2013-01-16 00:11:00,
2013-01-15 18:14:00,30.2,18.8,29.29,SW,217,3.1,3.1,62,0.00,,---,0.00,VWS V14.00,2013-01-16 00:14:00,
2013-01-15 18:17:00,30.2,18.8,29.29,NNE,26,0.0,3.1,62,0.00,,---,0.00,VWS V14.00,2013-01-16 00:17:00,
2013-01-15 18:19:00,30.2,18.8,29.29,NNE,26,0.0,3.1,62,0.00,,---,0.00,VWS V14.00,2013-01-16 00:19:00,
2013-01-15 18:23:00,30.2,18.8,29.29,NNE,26,0.0,0.0,62,0.00,,---,0.00,VWS V14.00,2013-01-16 00:23:00,
2013-01-15 18:29:00,30.5,19.1,29.32,NNW,340,0.0,0.0,62,0.00,,---,0.00,VWS V14.00,2013-01-16 00:29:00,
2013-01-15 18:32:00,30.5,19.1,29.32,North,353,0.0,0.0,62,0.00,,---,0.00,VWS V14.00,2013-01-16 00:32:00,
2013-01-15 18:34:00,30.7,19.3,29.32,North,353,0.0,0.0,62,0.00,,---,0.00,VWS V14.00,2013-01-16 00:34:00,
2013-01-15 18:38:00,30.7,19.3,29.32,North,0,0.0,0.0,62,0.00,,---,0.00,VWS V14.00,2013-01-16 00:38:00,
2013-01-15 18:44:00,30.9,19.8,29.29,North,0,0.0,0.0,63,0.00,,---,0.00,VWS V14.00,2013-01-16 00:44:00,
2013-01-15 18:47:00,30.9,19.8,29.29,North,9,0.0,0.0,63,0.00,,---,0.00,VWS V14.00,2013-01-16 00:47:00,
2013-01-15 18:53:00,31.1,19.2,29.29,North,9,0.0,0.0,61,0.00,,---,0.00,VWS V14.00,2013-01-16 00:53:00,
2013-01-15 18:59:00,30.9,19.0,29.29,WSW,254,0.0,0.0,61,0.00,,---,0.00,VWS V14.00,2013-01-16 00:59:00,
2013-01-15 19:02:00,30.9,18.7,29.29,WSW,254,0.0,0.0,60,0.00,,---,0.00,VWS V14.00,2013-01-16 01:02:00,
2013-01-15 19:04:00,30.7,18.5,29.29,WSW,254,0.0,0.0,60,0.00,,---,0.00,VWS V14.00,2013-01-16 01:04:00,
2013-01-15 19:11:00,30.7,18.9,29.29,WSW,254,0.0,0.0,61,0.00,,---,0.00,VWS V14.00,2013-01-16 01:11:00,
2013-01-15 19:14:00,30.7,18.9,29.29,WSW,254,0.0,0.0,61,0.00,,---,0.00,VWS V14.00,2013-01-16 01:14:00,
2013-01-15 19:17:00,30.7,18.9,29.29,WSW,254,0.0,0.0,61,0.00,,---,0.00,VWS V14.00,2013-01-16 01:17:00,
2013-01-15 19:20:00,30.5,18.3,29.29,WSW,254,0.0,0.0,60,0.00,,---,0.00,VWS V14.00,2013-01-16 01:20:00,
2013-01-15 19:23:00,30.5,18.3,29.29,NNE,21,0.0,0.0,60,0.00,,---,0.00,VWS V14.00,2013-01-16 01:23:00,
2013-01-15 19:27:00,30.5,18.3,29.29,NNE,21,0.0,0.0,60,0.00,,---,0.00,VWS V14.00,2013-01-16 01:27:00,
2013-01-15 19:30:00,30.5,18.3,29.29,NNE,21,0.0,0.0,60,0.00,,---,0.00,VWS V14.00,2013-01-16 01:30:00,
2013-01-15 19:33:00,29.6,17.1,29.29,NNE,21,0.0,0.0,59,0.00,,---,0.00,VWS V14.00,2013-01-16 01:33:00,
2013-01-15 19:36:00,29.5,16.9,29.29,NNE,21,0.0,0.0,59,0.00,,---,0.00,VWS V14.00,2013-01-16 01:36:00,
2013-01-15 19:39:00,29.5,16.9,29.29,NNE,21,0.0,0.0,59,0.00,,---,0.00,VWS V14.00,2013-01-16 01:39:00,
2013-01-15 19:42:00,29.5,17.3,29.29,NNE,21,0.0,0.0,60,0.00,,---,0.00,VWS V14.00,2013-01-16 01:42:00,
2013-01-15 19:45:00,29.6,17.5,29.29,NNE,21,0.0,0.0,60,0.00,,---,0.00,VWS V14.00,2013-01-16 01:45:00,
2013-01-15 19:48:00,29.6,17.1,29.29,North,5,0.0,0.0,59,0.00,,---,0.00,VWS V14.00,2013-01-16 01:48:00,
2013-01-15 19:49:00,29.6,17.1,29.29,North,5,0.0,0.0,59,0.00,,---,0.00,VWS V14.00,2013-01-16 01:49:00,
2013-01-15 19:51:00,29.8,17.2,29.29,North,5,0.0,0.0,59,0.00,,---,0.00,VWS V14.00,2013-01-16 01:51:00,
2013-01-15 19:57:00,29.8,17.2,29.29,NNE,15,0.0,0.0,59,0.00,,---,0.00,VWS V14.00,2013-01-16 01:57:00,
2013-01-15 20:03:00,29.8,17.2,29.29,NW,319,3.6,3.6,59,0.00,,---,0.00,VWS V14.00,2013-01-16 02:03:00,
2013-01-15 20:06:00,29.8,17.2,29.29,North,357,0.0,3.6,59,0.00,,---,0.00,VWS V14.00,2013-01-16 02:06:00,
2013-01-15 20:12:00,29.8,17.2,29.29,NNW,346,2.7,3.6,59,0.00,,---,0.00,VWS V14.00,2013-01-16 02:12:00,
2013-01-15 20:18:00,29.8,17.2,29.29,NNW,343,0.0,4.0,59,0.00,,---,0.00,VWS V14.00,2013-01-16 02:18:00,
2013-01-15 20:19:00,29.8,17.2,29.29,NNW,343,0.0,4.0,59,0.00,,---,0.00,VWS V14.00,2013-01-16 02:19:00,
2013-01-15 20:27:00,29.8,17.2,29.29,North,357,0.0,0.0,59,0.00,,---,0.00,VWS V14.00,2013-01-16 02:27:00,
2013-01-15 20:30:00,29.8,17.2,29.29,North,357,0.0,0.0,59,0.00,,---,0.00,VWS V14.00,2013-01-16 02:30:00,
2013-01-15 20:33:00,29.8,17.2,29.29,North,353,3.1,3.1,59,0.00,,---,0.00,VWS V14.00,2013-01-16 02:33:00,
2013-01-15 20:34:00,29.8,17.2,29.29,NNW,348,0.0,3.1,59,0.00,,---,0.00,VWS V14.00,2013-01-16 02:34:00,
2013-01-15 20:36:00,29.8,17.2,29.29,North,353,2.2,2.2,59,0.00,,---,0.00,VWS V14.00,2013-01-16 02:36:00,
2013-01-15 20:42:00,28.7,15.4,29.29,North,353,2.2,2.2,57,0.00,,---,0.00,VWS V14.00,2013-01-16 02:42:00,
2013-01-15 20:48:00,28.7,15.4,29.29,NNE,31,0.0,2.2,57,0.00,,---,0.00,VWS V14.00,2013-01-16 02:48:00,
2013-01-15 20:49:00,28.7,15.4,29.29,NNE,31,0.0,2.2,57,0.00,,---,0.00,VWS V14.00,2013-01-16 02:49:00,
2013-01-15 20:57:00,29.1,16.2,29.29,North,7,0.0,0.0,58,0.00,,---,0.00,VWS V14.00,2013-01-16 02:57:00,
2013-01-15 21:00:00,29.1,16.2,29.29,North,7,0.0,0.0,58,0.00,,---,0.00,VWS V14.00,2013-01-16 03:00:00,
2013-01-15 21:03:00,29.1,16.2,29.29,SW,235,0.0,0.0,58,0.00,,---,0.00,VWS V14.00,2013-01-16 03:03:00,
2013-01-15 21:09:00,28.7,15.8,29.29,North,0,2.2,2.7,58,0.00,,---,0.00,VWS V14.00,2013-01-16 03:09:00,
2013-01-15 21:12:00,28.7,15.8,29.29,North,353,0.0,2.7,58,0.00,,---,0.00,VWS V14.00,2013-01-16 03:12:00,
2013-01-15 21:15:00,28.7,15.8,29.29,North,353,0.0,2.7,58,0.00,,---,0.00,VWS V14.00,2013-01-16 03:15:00,
2013-01-15 21:21:00,27.8,15.0,29.29,North,0,0.0,4.0,58,0.00,,---,0.00,VWS V14.00,2013-01-16 03:21:00,
2013-01-15 21:27:00,27.8,15.0,29.23,North,357,0.0,4.0,58,0.00,,---,0.00,VWS V14.00,2013-01-16 03:27:00,
2013-01-15 21:30:00,27.8,15.0,29.23,North,357,0.0,4.0,58,0.00,,---,0.00,VWS V14.00,2013-01-16 03:30:00,
2013-01-15 21:33:00,27.8,15.0,29.23,North,357,0.0,4.0,58,0.00,,---,0.00,VWS V14.00,2013-01-16 03:33:00,
2013-01-15 21:34:00,27.8,15.0,29.23,North,357,0.0,4.0,58,0.00,,---,0.00,VWS V14.00,2013-01-16 03:34:00,
2013-01-15 21:42:00,27.3,14.5,29.29,West,261,0.0,0.0,58,0.00,,---,0.00,VWS V14.00,2013-01-16 03:42:00,
2013-01-15 21:45:00,27.3,14.9,29.29,West,261,0.0,0.0,59,0.00,,---,0.00,VWS V14.00,2013-01-16 03:45:00,
2013-01-15 21:48:00,27.3,14.9,29.29,West,275,0.0,0.0,59,0.00,,---,0.00,VWS V14.00,2013-01-16 03:48:00,
2013-01-15 21:51:00,27.3,14.9,29.29,West,275,0.0,0.0,59,0.00,,---,0.00,VWS V14.00,2013-01-16 03:51:00,
2013-01-15 21:54:00,27.3,14.9,29.29,West,275,0.0,0.0,59,0.00,,---,0.00,VWS V14.00,2013-01-16 03:54:00,
2013-01-15 22:00:00,27.3,14.9,29.29,NW,305,0.0,0.0,59,0.00,,---,0.00,VWS V14.00,2013-01-16 04:00:00,
2013-01-15 22:04:00,27.3,14.9,29.29,WNW,285,0.0,0.0,59,0.00,,---,0.00,VWS V14.00,2013-01-16 04:04:00,
2013-01-15 22:06:00,27.3,14.9,29.29,WNW,285,0.0,0.0,59,0.00,,---,0.00,VWS V14.00,2013-01-16 04:06:00,
2013-01-15 22:09:00,27.3,14.9,29.29,North,357,0.0,0.0,59,0.00,,---,0.00,VWS V14.00,2013-01-16 04:09:00,
2013-01-15 22:15:00,27.3,14.9,29.29,West,269,0.0,0.0,59,0.00,,---,0.00,VWS V14.00,2013-01-16 04:15:00,
2013-01-15 22:18:00,27.3,14.9,29.29,North,357,0.0,0.0,59,0.00,,---,0.00,VWS V14.00,2013-01-16 04:18:00,
2013-01-15 22:24:00,27.3,14.9,29.29,NW,313,0.0,0.0,59,0.00,,---,0.00,VWS V14.00,2013-01-16 04:24:00,
2013-01-15 22:30:00,28.0,15.6,29.26,NNE,17,0.0,0.0,59,0.00,,---,0.00,VWS V14.00,2013-01-16 04:30:00,
2013-01-15 22:33:00,28.0,15.6,29.26,NNW,344,0.0,0.0,59,0.00,,---,0.00,VWS V14.00,2013-01-16 04:33:00,
2013-01-15 22:36:00,28.0,15.6,29.26,North,353,0.0,0.0,59,0.00,,---,0.00,VWS V14.00,2013-01-16 04:36:00,
2013-01-15 22:39:00,28.0,15.6,29.26,North,2,0.0,0.0,59,0.00,,---,0.00,VWS V14.00,2013-01-16 04:39:00,
2013-01-15 22:42:00,28.0,15.6,29.26,North,2,0.0,0.0,59,0.00,,---,0.00,VWS V14.00,2013-01-16 04:42:00,
2013-01-15 22:48:00,28.0,15.6,29.26,North,0,0.0,0.0,59,0.00,,---,0.00,VWS V14.00,2013-01-16 04:48:00,
2013-01-15 22:49:00,28.0,15.6,29.26,North,0,0.0,0.0,59,0.00,,---,0.00,VWS V14.00,2013-01-16 04:49:00,
2013-01-15 22:51:00,28.0,15.6,29.26,NNW,345,0.0,0.0,59,0.00,,---,0.00,VWS V14.00,2013-01-16 04:51:00,
2013-01-15 22:54:00,28.0,15.9,29.29,North,357,0.0,0.0,60,0.00,,---,0.00,VWS V14.00,2013-01-16 04:54:00,
2013-01-15 22:57:00,28.0,15.9,29.29,North,357,0.0,0.0,60,0.00,,---,0.00,VWS V14.00,2013-01-16 04:57:00,
2013-01-15 23:00:00,28.0,15.9,29.29,NNW,348,0.0,0.0,60,0.00,,---,0.00,VWS V14.00,2013-01-16 05:00:00,
2013-01-15 23:04:00,28.0,15.9,29.29,NW,307,0.0,0.0,60,0.00,,---,0.00,VWS V14.00,2013-01-16 05:04:00,
2013-01-15 23:06:00,28.0,15.9,29.29,WSW,251,0.0,0.0,60,0.00,,---,0.00,VWS V14.00,2013-01-16 05:06:00,
2013-01-15 23:09:00,28.0,15.9,29.29,WSW,251,0.0,0.0,60,0.00,,---,0.00,VWS V14.00,2013-01-16 05:09:00,
2013-01-15 23:12:00,28.0,15.6,29.29,NNW,348,0.0,0.0,59,0.00,,---,0.00,VWS V14.00,2013-01-16 05:12:00,
2013-01-15 23:15:00,28.0,15.6,29.29,North,350,0.0,0.0,59,0.00,,---,0.00,VWS V14.00,2013-01-16 05:15:00,
2013-01-15 23:18:00,28.0,15.6,29.29,WSW,256,0.0,0.0,59,0.00,,---,0.00,VWS V14.00,2013-01-16 05:18:00,
2013-01-15 23:19:00,27.5,15.1,29.29,West,276,0.0,0.0,59,0.00,,---,0.00,VWS V14.00,2013-01-16 05:19:00,
2013-01-15 23:24:00,27.5,15.1,29.29,North,10,0.0,0.0,59,0.00,,---,0.00,VWS V14.00,2013-01-16 05:24:00,
2013-01-15 23:28:00,27.5,15.1,29.29,West,276,0.0,0.0,59,0.00,,---,0.00,VWS V14.00,2013-01-16 05:28:00,
2013-01-15 23:34:00,27.3,14.9,29.29,ENE,60,0.0,0.0,59,0.00,,---,0.00,VWS V14.00,2013-01-16 05:34:00,
2013-01-15 23:40:00,27.3,14.9,29.29,ENE,60,0.0,0.0,59,0.00,,---,0.00,VWS V14.00,2013-01-16 05:40:00,
2013-01-15 23:43:00,27.3,14.9,29.29,South,180,2.2,2.2,59,0.00,,---,0.00,VWS V14.00,2013-01-16 05:43:00,
2013-01-15 23:46:00,27.3,14.9,29.29,South,180,0.0,2.2,59,0.00,,---,0.00,VWS V14.00,2013-01-16 05:46:00,
2013-01-15 23:49:00,26.0,13.7,29.29,South,180,0.0,2.2,59,0.00,,---,0.00,VWS V14.00,2013-01-16 05:49:00,
2013-01-15 23:55:00,26.0,13.7,29.29,South,180,0.0,0.0,59,0.00,,---,0.00,VWS V14.00,2013-01-16 05:55:00,